Weather reports worldwide

Advertisment
La Seo D'Urgell, Spain (8115): temperature & dewpoint: 10.01.2018 08:00:00 - 16.01.2018 08:00:00 (CET)La Seo D'Urgell, Spain (8115): wind speed & gusts: 10.01.2018 08:00:00 - 16.01.2018 08:00:00 (CET)La Seo D'Urgell, Spain (8115): wind direction: 10.01.2018 08:00:00 - 16.01.2018 08:00:00 (CET)La Seo D'Urgell, Spain (8115): precipitation: 10.01.2018 08:00:00 - 16.01.2018 08:00:00 (CET)
Date & Time tt [°C] td [°C] ff [km/h] ff [kn] fx [km/h] fx [kn] dd rr [mm]
16.01.2018 08:00:00 -2,4 -2,7 1 1 4 2 ESE 0,0
16.01.2018 07:00:00 -2,4 -2,7 1 0 5 3 SSE -
16.01.2018 06:00:00 -2,8 -3,2 0 0 5 3 NW 0,0
16.01.2018 05:00:00 -2,7 -3,2 1 1 4 2 NE 0,0
16.01.2018 04:00:00 -2,7 -3,2 0 0 4 2 WNW 0,0
16.01.2018 03:00:00 -2,4 -2,9 2 1 5 3 NNE 0,0
16.01.2018 02:00:00 -1,9 -2,6 1 0 3 2 N 0,0
16.01.2018 01:00:00 -1,4 -2,1 1 0 3 2 E -
16.01.2018 00:00:00 -0,9 -1,7 0 0 5 3 NNE 0,0
15.01.2018 23:00:00 -0,3 -1,4 0 0 3 2 N 0,0
15.01.2018 22:00:00 0,5 -0,9 0 0 7 4 S 0,0
15.01.2018 21:00:00 1,5 -0,4 0 0 6 3 S 0,0
15.01.2018 20:00:00 2,7 0,1 2 1 4 2 ESE 0,0
15.01.2018 19:00:00 3,7 -0,1 1 1 4 2 SSW -
15.01.2018 18:00:00 5,5 -0,7 1 1 10 5 SSE 0,0
15.01.2018 17:00:00 7,1 -1,1 3 2 8 4 SW 0,0
15.01.2018 16:00:00 8,0 -2,6 3 2 9 5 SSW 0,0
15.01.2018 15:00:00 9,0 -2,0 1 1 9 5 S 0,0
15.01.2018 14:00:00 7,7 -1,8 3 1 8 4 SW 0,0
15.01.2018 13:00:00 4,6 0,6 5 3 10 5 SSW -
15.01.2018 12:00:00 1,4 -0,4 4 2 7 4 SSW 0,0
15.01.2018 11:00:00 0,3 -0,4 5 3 7 4 SSW 0,0
15.01.2018 10:00:00 -0,9 -1,3 0 0 4 2 NW 0,0
15.01.2018 09:00:00 -1,2 -1,6 2 1 4 2 ESE 0,0
15.01.2018 08:00:00 -1,9 -2,3 2 1 4 2 NNE 0,0
15.01.2018 07:00:00 -2,2 -2,7 1 0 3 1 NNE -
15.01.2018 06:00:00 -2,0 -2,5 0 0 3 2 SE 0,0
15.01.2018 05:00:00 -1,5 -2,2 0 0 3 2 NW 0,0
15.01.2018 04:00:00 -0,8 -1,5 0 0 4 2 SSW 0,0
15.01.2018 03:00:00 -0,1 -0,8 1 1 5 3 N 0,0
15.01.2018 02:00:00 0,6 -0,4 1 1 3 2 NNW 0,0
15.01.2018 01:00:00 1,2 0,1 0 0 3 1 NNW -
15.01.2018 00:00:00 2,1 0,5 0 0 4 2 SE 0,0
14.01.2018 23:00:00 2,8 1,2 2 1 9 5 N 0,0
14.01.2018 22:00:00 3,3 2,0 2 1 4 2 E 0,0
14.01.2018 21:00:00 3,6 2,1 0 0 3 2 E 0,0
14.01.2018 20:00:00 3,8 2,0 0 0 3 2 E 0,0
14.01.2018 19:00:00 3,9 1,8 0 0 3 2 SSE -
14.01.2018 18:00:00 4,7 1,4 1 1 6 3 SW 0,0
14.01.2018 17:00:00 5,8 1,5 2 1 6 4 SE 0,0
14.01.2018 16:00:00 5,5 1,6 3 2 11 6 SSW 0,0
14.01.2018 15:00:00 5,5 1,8 4 2 11 6 W 0,0
14.01.2018 14:00:00 4,4 1,4 1 1 9 5 NNE 0,0
14.01.2018 13:00:00 3,9 2,4 5 3 9 5 SW -
14.01.2018 12:00:00 2,9 2,3 1 0 3 2 SE 0,0
14.01.2018 11:00:00 2,0 1,6 0 0 3 2 ESE 0,0
14.01.2018 10:00:00 1,0 0,6 0 0 3 2 SSW 0,0
14.01.2018 09:00:00 0,5 0,1 0 0 2 1 N 0,0
14.01.2018 08:00:00 0,5 0,1 1 0 2 1 N 0,0
14.01.2018 07:00:00 0,6 0,2 1 1 3 2 SSW -
14.01.2018 06:00:00 0,6 0,0 0 0 2 1 NW 0,3
14.01.2018 05:00:00 0,7 0,1 0 0 3 1 NNW 0,5
14.01.2018 04:00:00 0,9 0,3 1 1 4 2 N 0,5
14.01.2018 03:00:00 0,7 0,0 1 1 4 2 SSW 0,2
14.01.2018 02:00:00 0,6 -0,1 1 1 5 3 W 0,0
14.01.2018 01:00:00 0,5 -0,3 1 1 5 3 NNW -
14.01.2018 00:00:00 0,4 -0,7 1 0 4 2 NE 0,0
13.01.2018 23:00:00 1,2 -0,7 2 1 5 3 N 0,0
13.01.2018 22:00:00 1,6 -0,8 4 2 10 5 WSW 0,0
13.01.2018 21:00:00 0,7 -1,8 1 0 3 2 E 0,0
13.01.2018 20:00:00 0,8 -2,9 1 0 3 2 NW 0,0
13.01.2018 19:00:00 2,5 -3,2 0 0 5 3 SE -
13.01.2018 18:00:00 3,7 -3,8 1 1 5 3 NNE 0,0
13.01.2018 17:00:00 4,5 -4,0 0 0 5 3 NW 0,0
13.01.2018 16:00:00 5,4 -5,0 2 1 6 3 SSW 0,0
13.01.2018 15:00:00 4,9 -4,9 2 1 6 3 S 0,0
13.01.2018 14:00:00 5,0 -5,3 2 1 7 4 S 0,0
13.01.2018 13:00:00 2,8 -3,9 1 1 8 4 E -
13.01.2018 12:00:00 0,2 -2,8 2 1 5 3 E 0,0
13.01.2018 11:00:00 -1,3 -2,3 1 1 3 2 SSW 0,0
13.01.2018 10:00:00 -2,7 -3,2 1 0 5 3 SSW 0,0
13.01.2018 09:00:00 -3,6 -4,1 0 0 5 3 W 0,0
13.01.2018 08:00:00 -4,1 -4,6 1 0 4 2 S 0,0
13.01.2018 07:00:00 -4,8 -5,5 1 1 4 2 NE -
13.01.2018 06:00:00 -4,8 -5,5 0 0 4 2 E 0,0
13.01.2018 05:00:00 -4,7 -5,4 1 1 4 2 N 0,0
13.01.2018 04:00:00 -4,3 -5,1 0 0 4 2 E 0,0
13.01.2018 03:00:00 -3,8 -4,6 1 1 5 3 SW 0,0
13.01.2018 02:00:00 -3,6 -4,7 1 1 4 2 SE 0,0
13.01.2018 01:00:00 -3,1 -4,2 0 0 5 3 ESE -
13.01.2018 00:00:00 -2,5 -3,9 1 1 5 3 NE 0,0
12.01.2018 23:00:00 -1,9 -3,6 1 0 6 3 E 0,0
12.01.2018 22:00:00 -1,0 -3,0 1 1 5 3 S 0,0
12.01.2018 21:00:00 -0,6 -3,4 2 1 5 3 NNE 0,0
12.01.2018 20:00:00 0,5 -3,6 1 1 6 4 N 0,0
12.01.2018 19:00:00 2,4 -3,9 2 1 9 5 E -
12.01.2018 18:00:00 4,8 -4,2 1 1 6 4 WSW 0,0
12.01.2018 17:00:00 8,7 -4,8 4 2 10 6 E 0,0
12.01.2018 16:00:00 9,7 -4,6 2 1 7 4 WSW 0,0
12.01.2018 15:00:00 8,7 -2,2 1 0 7 4 ENE 0,0
12.01.2018 14:00:00 5,7 -3,4 1 1 6 4 SSW 0,0
12.01.2018 13:00:00 4,9 -2,9 4 2 15 8 SW -
12.01.2018 12:00:00 1,2 -1,5 4 2 8 4 SSW 0,0
12.01.2018 11:00:00 -1,1 -1,8 1 1 6 4 ENE 0,0
12.01.2018 10:00:00 -3,2 -3,7 2 1 6 3 S 0,0
12.01.2018 09:00:00 -4,4 -4,9 0 0 4 2 WNW 0,0
12.01.2018 08:00:00 -4,4 -4,9 1 1 6 4 NNE 0,0
12.01.2018 07:00:00 -3,9 -4,4 0 0 5 3 S -
12.01.2018 06:00:00 -3,9 -4,6 2 1 5 3 NNE 0,0
12.01.2018 05:00:00 -3,7 -4,4 0 0 4 2 N 0,0
12.01.2018 04:00:00 -3,1 -3,8 0 0 5 3 NE 0,0
12.01.2018 03:00:00 -3,0 -3,8 3 1 8 4 N 0,0
12.01.2018 02:00:00 -2,6 -3,6 1 0 6 3 SE 0,0
12.01.2018 01:00:00 -2,1 -3,2 3 1 5 3 SSW -
12.01.2018 00:00:00 -1,6 -2,9 1 0 6 4 WSW 0,0
11.01.2018 23:00:00 -1,3 -2,9 1 1 6 3 S 0,0
11.01.2018 22:00:00 -1,0 -2,9 1 1 4 2 S 0,0
11.01.2018 21:00:00 0,0 -2,7 0 0 5 3 SSE 0,0
11.01.2018 20:00:00 0,9 -3,0 3 1 7 4 ENE 0,0
11.01.2018 19:00:00 2,8 -3,7 0 0 8 5 ENE -
11.01.2018 18:00:00 5,3 -5,3 3 1 13 7 WSW 0,0
11.01.2018 17:00:00 8,3 -6,6 8 4 18 10 NNW 0,0
11.01.2018 16:00:00 8,6 -5,9 6 3 21 11 N 0,0
11.01.2018 15:00:00 9,6 -4,7 7 4 20 11 N 0,0
11.01.2018 14:00:00 8,6 -0,9 2 1 8 4 S 0,0
11.01.2018 13:00:00 7,1 3,2 1 1 7 4 SW -
11.01.2018 12:00:00 3,4 2,2 4 2 10 6 SSW 0,0
11.01.2018 11:00:00 2,6 2,2 1 1 5 3 S 0,0
11.01.2018 10:00:00 1,7 1,4 1 0 4 2 WSW 0,1
11.01.2018 09:00:00 1,4 1,1 1 1 4 2 S 0,0
11.01.2018 08:00:00 1,2 0,8 1 1 4 2 SW 0,0
11.01.2018 07:00:00 1,1 0,7 1 1 5 3 S -
11.01.2018 06:00:00 0,7 0,3 1 1 5 3 W 0,0
11.01.2018 05:00:00 1,2 0,6 2 1 5 3 SW 0,0
11.01.2018 04:00:00 1,7 1,1 2 1 4 2 ENE 0,0
11.01.2018 03:00:00 1,9 1,3 1 1 4 2 SSW 0,0
11.01.2018 02:00:00 2,1 1,4 1 1 4 2 ESE 0,6
11.01.2018 01:00:00 1,7 1,0 0 0 4 2 SE -
11.01.2018 00:00:00 1,5 0,6 2 1 4 2 SW 0,0
10.01.2018 23:00:00 1,4 0,4 0 0 3 2 ESE 0,0
10.01.2018 22:00:00 1,2 0,1 0 0 3 2 WNW 0,0
10.01.2018 21:00:00 1,1 -0,2 2 1 3 2 SSW 0,0
10.01.2018 20:00:00 1,2 -0,7 1 1 4 2 NNE 0,0
10.01.2018 19:00:00 2,2 -0,7 2 1 4 2 SSW -
10.01.2018 18:00:00 3,9 -1,0 1 0 5 3 E 0,0
10.01.2018 17:00:00 7,0 -0,9 3 2 6 4 SW 0,0
10.01.2018 16:00:00 8,0 -2,3 3 2 9 5 S 0,0
10.01.2018 15:00:00 8,1 -1,7 1 1 6 4 E 0,0
10.01.2018 14:00:00 7,3 -0,6 3 1 8 5 S 0,0
10.01.2018 13:00:00 4,4 -0,4 3 2 9 5 SE -
10.01.2018 12:00:00 1,7 -0,9 3 2 7 4 S 0,0
10.01.2018 11:00:00 0,3 -0,8 3 1 6 3 SSW 0,0
10.01.2018 10:00:00 -1,1 -1,7 0 0 2 1 WNW 0,0
10.01.2018 09:00:00 -1,9 -2,4 0 0 3 1 SW 0,0
10.01.2018 08:00:00 -1,7 -2,4 0 0 4 2 SSE 0,0

tt = temperature
td = dewpoint
ff = wind speed
fx = gusts
dd = wind direction
rr = precipitation

Next stations